createdAt,value
2022-12-15T00:00:04.626Z,7.63
2022-12-15T00:02:50.322Z,8.10
2022-12-15T00:05:36.402Z,8.05
2022-12-15T00:08:29.559Z,7.63
2022-12-15T00:11:15.662Z,8.48
2022-12-15T00:14:01.450Z,7.88
2022-12-15T00:16:47.535Z,8.30
2022-12-15T00:19:33.886Z,7.40
2022-12-15T00:22:19.806Z,8.20
2022-12-15T00:25:06.085Z,7.68
2022-12-15T00:27:55.162Z,7.72
2022-12-15T00:30:42.602Z,7.97
2022-12-15T00:33:30.016Z,8.32
2022-12-15T00:36:18.102Z,8.48
2022-12-15T00:38:46.331Z,8.30
2022-12-15T00:41:17.968Z,6.30
2022-12-15T00:43:45.879Z,7.80
2022-12-15T00:46:31.984Z,7.13
2022-12-15T00:48:59.539Z,7.63
2022-12-15T00:51:46.507Z,7.65
2022-12-15T00:54:33.814Z,7.28
2022-12-15T00:57:19.844Z,7.40
2022-12-15T01:00:05.766Z,7.32
2022-12-15T01:02:52.246Z,6.65
2022-12-15T01:05:38.431Z,7.43
2022-12-15T01:08:24.757Z,7.32
2022-12-15T01:11:10.777Z,6.80
2022-12-15T01:13:56.696Z,6.53
2022-12-15T01:16:42.915Z,7.07
2022-12-15T01:19:29.046Z,7.22
2022-12-15T01:21:56.426Z,7.32
2022-12-15T01:24:24.763Z,7.93
2022-12-15T01:26:52.656Z,7.55
2022-12-15T01:29:20.159Z,6.63
2022-12-15T01:31:49.771Z,8.43
2022-12-15T01:34:19.932Z,8.48
2022-12-15T01:36:47.383Z,7.95
2022-12-15T01:39:17.000Z,7.47
2022-12-15T01:41:47.524Z,7.75
2022-12-15T01:44:33.116Z,7.82
2022-12-15T01:47:02.620Z,8.02
2022-12-15T01:49:30.906Z,7.15
2022-12-15T01:52:00.286Z,7.40
2022-12-15T01:54:31.219Z,7.57
2022-12-15T01:57:03.909Z,7.40
2022-12-15T01:59:36.642Z,7.47
2022-12-15T02:02:04.475Z,8.02
2022-12-15T02:04:32.539Z,7.93
2022-12-15T02:06:59.882Z,8.27
2022-12-15T02:09:27.737Z,8.15
2022-12-15T02:12:13.532Z,9.02
2022-12-15T02:14:56.458Z,8.82
2022-12-15T02:17:42.617Z,7.70
2022-12-15T02:20:32.996Z,7.70
2022-12-15T02:23:16.189Z,7.93
2022-12-15T02:26:03.492Z,8.20
2022-12-15T02:28:30.745Z,8.63
2022-12-15T02:31:23.324Z,7.85
2022-12-15T02:33:53.887Z,7.78
2022-12-15T02:36:30.182Z,8.05
2022-12-15T02:39:00.554Z,7.70
2022-12-15T02:41:52.845Z,8.40
2022-12-15T02:44:36.104Z,8.25
2022-12-15T02:47:03.584Z,7.43
2022-12-15T02:49:37.111Z,8.55
2022-12-15T02:54:51.289Z,7.95
2022-12-15T02:57:47.767Z,8.13
2022-12-15T03:00:16.620Z,7.05
2022-12-15T03:02:46.488Z,8.20
2022-12-15T03:05:17.896Z,7.75
2022-12-15T03:07:46.420Z,8.35
2022-12-15T03:10:17.277Z,8.35
2022-12-15T03:12:48.302Z,8.02
2022-12-15T03:15:15.817Z,8.40
2022-12-15T03:17:42.998Z,8.65
2022-12-15T03:20:12.227Z,9.15
2022-12-15T03:22:40.042Z,8.02
2022-12-15T03:25:07.603Z,9.00
2022-12-15T03:27:36.182Z,7.90
2022-12-15T03:30:03.835Z,8.27
2022-12-15T03:32:31.905Z,7.65
2022-12-15T03:34:59.038Z,8.73
2022-12-15T03:37:26.412Z,8.73
2022-12-15T03:39:54.067Z,8.00
2022-12-15T03:42:41.402Z,8.20
2022-12-15T03:45:09.160Z,8.02
2022-12-15T03:47:36.445Z,7.70
2022-12-15T03:50:04.497Z,8.57
2022-12-15T03:52:32.004Z,8.30
2022-12-15T03:54:59.614Z,8.23
2022-12-15T03:57:27.392Z,7.80
2022-12-15T03:59:55.862Z,8.50
2022-12-15T04:02:23.639Z,7.65
2022-12-15T04:04:54.267Z,7.22
2022-12-15T04:07:21.760Z,8.93
2022-12-15T04:09:49.381Z,8.95
2022-12-15T04:12:17.028Z,6.82
2022-12-15T04:14:46.017Z,8.93
2022-12-15T04:17:17.572Z,8.53
2022-12-15T04:20:03.517Z,7.80
2022-12-15T04:22:30.825Z,7.07
2022-12-15T04:25:17.431Z,8.45
2022-12-15T04:28:03.942Z,7.97
2022-12-15T04:30:50.629Z,7.53
2022-12-15T04:33:37.268Z,8.80
2022-12-15T04:36:24.438Z,8.27
2022-12-15T04:39:10.767Z,7.43
2022-12-15T04:41:56.630Z,7.70
2022-12-15T04:44:43.475Z,8.25
2022-12-15T04:47:36.194Z,7.68
2022-12-15T04:50:22.079Z,8.60
2022-12-15T04:53:08.308Z,7.40
2022-12-15T04:55:55.324Z,8.43
2022-12-15T04:58:45.868Z,8.52
2022-12-15T05:01:31.910Z,8.27
2022-12-15T05:04:21.527Z,8.02
2022-12-15T05:07:07.483Z,9.38
2022-12-15T05:09:53.678Z,8.73
2022-12-15T05:12:39.370Z,7.97
2022-12-15T05:15:25.550Z,8.30
2022-12-15T05:18:11.934Z,7.50
2022-12-15T05:20:58.866Z,8.32
2022-12-15T05:23:44.706Z,7.47
2022-12-15T05:26:30.819Z,8.18
2022-12-15T05:29:16.899Z,8.88
2022-12-15T05:31:55.264Z,8.35
2022-12-15T05:34:24.057Z,7.72
2022-12-15T05:36:51.826Z,9.00
2022-12-15T05:39:19.786Z,8.30
2022-12-15T05:41:47.403Z,7.93
2022-12-15T05:44:17.567Z,8.05
2022-12-15T05:46:45.352Z,8.50
2022-12-15T05:49:17.405Z,8.70
2022-12-15T05:51:45.982Z,8.43
2022-12-15T05:54:18.164Z,8.07
2022-12-15T05:56:46.003Z,8.85
2022-12-15T05:59:19.471Z,8.88
2022-12-15T06:04:14.412Z,7.78
2022-12-15T06:06:42.802Z,7.15
2022-12-15T06:09:10.464Z,8.88
2022-12-15T06:11:39.566Z,8.30
2022-12-15T06:14:06.723Z,8.60
2022-12-15T06:16:34.182Z,8.10
2022-12-15T06:19:02.872Z,8.00
2022-12-15T06:21:38.310Z,7.90
2022-12-15T06:24:06.197Z,8.38
2022-12-15T06:26:38.120Z,8.45
2022-12-15T06:29:07.830Z,7.53
2022-12-15T06:31:35.441Z,8.20
2022-12-15T06:34:05.134Z,8.88
2022-12-15T06:36:32.598Z,8.45
2022-12-15T06:39:01.154Z,8.43
2022-12-15T06:41:30.706Z,8.23
2022-12-15T06:43:58.955Z,7.75
2022-12-15T06:46:28.615Z,7.70
2022-12-15T06:48:56.241Z,7.80
2022-12-15T06:51:23.836Z,8.18
2022-12-15T06:53:54.139Z,7.93
2022-12-15T06:56:32.685Z,8.52
2022-12-15T06:59:01.951Z,8.05
2022-12-15T07:01:30.071Z,8.80
2022-12-15T07:04:00.044Z,8.65
2022-12-15T07:06:27.574Z,8.38
2022-12-15T07:08:56.940Z,7.88
2022-12-15T07:11:24.667Z,8.60
2022-12-15T07:13:53.207Z,7.32
2022-12-15T07:16:21.585Z,7.97
2022-12-15T07:18:49.547Z,9.48
2022-12-15T07:21:17.146Z,8.05
2022-12-15T07:24:01.551Z,9.32
2022-12-15T07:26:32.618Z,8.60
2022-12-15T07:28:59.894Z,8.30
2022-12-15T07:31:27.420Z,8.65
2022-12-15T07:33:56.089Z,8.23
2022-12-15T07:36:25.220Z,9.18
2022-12-15T07:38:52.676Z,8.30
2022-12-15T07:41:21.075Z,9.40
2022-12-15T07:43:48.917Z,8.32
2022-12-15T07:46:19.729Z,8.32
2022-12-15T07:48:50.520Z,8.75
2022-12-15T07:51:23.277Z,9.13
2022-12-15T07:53:53.472Z,9.30
2022-12-15T07:56:21.257Z,9.52
2022-12-15T07:58:48.748Z,10.25
2022-12-15T08:01:16.873Z,9.93
2022-12-15T08:03:48.305Z,10.02
2022-12-15T08:06:16.482Z,10.00
2022-12-15T08:08:50.766Z,9.82
2022-12-15T08:11:19.853Z,10.25
2022-12-15T08:14:05.079Z,9.93
2022-12-15T08:16:36.484Z,9.60
2022-12-15T08:19:07.456Z,9.30
2022-12-15T08:21:35.478Z,10.02
2022-12-15T08:24:02.898Z,9.73
2022-12-15T08:26:31.703Z,9.98
2022-12-15T08:31:52.148Z,10.65
2022-12-15T08:34:19.627Z,12.27
2022-12-15T08:36:47.481Z,11.32
2022-12-15T08:39:14.600Z,11.75
2022-12-15T08:41:42.179Z,10.90
2022-12-15T08:44:17.267Z,12.02
2022-12-15T08:46:47.254Z,12.32
2022-12-15T08:49:21.684Z,11.63
2022-12-15T08:51:50.044Z,12.75
2022-12-15T08:54:18.228Z,12.68
2022-12-15T08:56:48.161Z,13.15
2022-12-15T08:59:19.507Z,12.57
2022-12-15T09:01:47.169Z,13.25
2022-12-15T09:04:18.222Z,13.32
2022-12-15T09:06:50.305Z,12.30
2022-12-15T09:09:18.501Z,13.18
2022-12-15T09:11:46.351Z,13.05
2022-12-15T09:14:13.821Z,13.80
2022-12-15T09:16:42.291Z,13.18
2022-12-15T09:19:10.163Z,12.05
2022-12-15T09:21:40.517Z,14.50
2022-12-15T09:24:08.154Z,14.55
2022-12-15T09:26:35.609Z,14.57
2022-12-15T09:29:03.183Z,13.85
2022-12-15T09:31:33.050Z,14.45
2022-12-15T09:34:03.720Z,15.32
2022-12-15T09:36:33.260Z,14.98
2022-12-15T09:39:04.212Z,14.70
2022-12-15T09:41:36.910Z,14.23
2022-12-15T09:44:25.486Z,13.70
2022-12-15T09:47:11.939Z,15.55
2022-12-15T09:49:53.217Z,13.88
2022-12-15T09:52:22.800Z,14.40
2022-12-15T09:54:53.401Z,14.60
2022-12-15T09:57:26.645Z,15.32
2022-12-15T10:00:17.753Z,13.20
2022-12-15T10:02:56.907Z,14.23
2022-12-15T10:06:14.216Z,14.30
2022-12-15T10:08:30.623Z,13.40
2022-12-15T10:11:01.915Z,13.98
2022-12-15T10:13:38.581Z,13.68
2022-12-15T10:16:24.748Z,12.30
2022-12-15T10:19:05.150Z,12.40
2022-12-15T10:21:35.553Z,13.15
2022-12-15T10:24:17.608Z,13.18
2022-12-15T10:27:01.043Z,13.25
2022-12-15T10:29:55.260Z,12.50
2022-12-15T10:34:51.882Z,12.02
2022-12-15T10:37:20.471Z,12.48
2022-12-15T10:39:50.263Z,13.60
2022-12-15T10:42:25.716Z,13.38
2022-12-15T10:44:59.463Z,13.73
2022-12-15T10:47:30.489Z,12.02
2022-12-15T10:50:24.316Z,12.77
2022-12-15T10:52:59.125Z,11.63
2022-12-15T10:55:43.860Z,12.25
2022-12-15T10:58:19.364Z,12.57
2022-12-15T11:03:53.354Z,12.27
2022-12-15T11:06:29.301Z,12.80
2022-12-15T11:09:24.427Z,12.73
2022-12-15T11:12:12.095Z,12.80
2022-12-15T11:14:47.654Z,12.95
2022-12-15T11:17:17.009Z,13.13
2022-12-15T11:19:44.028Z,12.75
2022-12-15T11:22:16.042Z,14.15
2022-12-15T11:24:50.552Z,12.90
2022-12-15T11:27:28.304Z,12.70
2022-12-15T11:29:55.841Z,13.25
2022-12-15T11:32:28.649Z,13.32
2022-12-15T11:34:56.515Z,13.32
2022-12-15T11:37:43.392Z,13.15
2022-12-15T11:40:20.193Z,13.23
2022-12-15T11:42:55.536Z,12.07
2022-12-15T11:45:37.545Z,13.00
2022-12-15T11:48:07.696Z,13.00
2022-12-15T11:50:58.081Z,13.88
2022-12-15T11:53:27.974Z,12.18
2022-12-15T11:56:04.199Z,13.95
2022-12-15T11:58:32.411Z,12.82
2022-12-15T12:01:12.514Z,12.70
2022-12-15T12:03:56.699Z,13.13
2022-12-15T12:06:44.709Z,13.32
2022-12-15T12:09:14.402Z,13.43
2022-12-15T12:12:02.159Z,14.90
2022-12-15T12:14:38.094Z,12.98
2022-12-15T12:17:13.852Z,13.27
2022-12-15T12:19:50.703Z,12.73
2022-12-15T12:22:26.811Z,12.68
2022-12-15T12:25:04.259Z,13.93
2022-12-15T12:27:41.212Z,13.80
2022-12-15T12:30:19.385Z,13.35
2022-12-15T12:32:50.598Z,13.98
2022-12-15T12:35:31.459Z,13.30
2022-12-15T12:38:04.686Z,13.98
2022-12-15T12:40:33.075Z,12.82
2022-12-15T12:43:11.835Z,12.85
2022-12-15T12:45:47.498Z,13.85
2022-12-15T12:48:25.449Z,14.77
2022-12-15T12:50:57.572Z,15.00
2022-12-15T12:53:26.164Z,14.02
2022-12-15T12:55:54.373Z,14.68
2022-12-15T12:58:35.388Z,14.85
2022-12-15T13:01:13.184Z,14.63
2022-12-15T13:03:43.580Z,14.85
2022-12-15T13:06:27.029Z,15.05
2022-12-15T13:08:56.063Z,14.60
2022-12-15T13:11:41.977Z,15.48
2022-12-15T13:14:19.676Z,15.48
2022-12-15T13:17:17.192Z,14.15
2022-12-15T13:19:59.159Z,13.88
2022-12-15T13:22:36.511Z,14.50
2022-12-15T13:25:27.252Z,15.32
2022-12-15T13:28:02.517Z,14.63
2022-12-15T13:30:30.086Z,15.32
2022-12-15T13:33:15.463Z,16.67
2022-12-15T13:35:43.218Z,15.43
2022-12-15T13:38:17.882Z,15.13
2022-12-15T13:40:48.280Z,16.00
2022-12-15T13:43:31.962Z,15.23
2022-12-15T13:46:03.340Z,15.65
2022-12-15T13:48:57.073Z,15.77
2022-12-15T13:51:27.064Z,15.38
2022-12-15T13:53:56.831Z,16.58
2022-12-15T13:56:33.355Z,15.20
2022-12-15T13:59:08.152Z,15.57
2022-12-15T14:01:35.769Z,16.67
2022-12-15T14:04:08.276Z,15.93
2022-12-15T14:06:47.070Z,15.55
2022-12-15T14:09:20.948Z,15.05
2022-12-15T14:11:54.152Z,16.00
2022-12-15T14:14:32.182Z,14.93
2022-12-15T14:17:01.333Z,14.65
2022-12-15T14:19:38.674Z,14.98
2022-12-15T14:25:18.967Z,14.77
2022-12-15T14:27:50.950Z,15.05
2022-12-15T14:30:22.662Z,16.35
2022-12-15T14:33:08.266Z,15.75
2022-12-15T14:35:42.276Z,15.63
2022-12-15T14:38:14.047Z,15.63
2022-12-15T14:40:41.968Z,15.25
2022-12-15T14:43:23.422Z,16.10
2022-12-15T14:45:53.229Z,16.85
2022-12-15T14:48:41.544Z,16.85
2022-12-15T14:51:11.493Z,17.13
2022-12-15T14:53:40.855Z,16.48
2022-12-15T14:56:31.262Z,16.33
2022-12-15T14:59:16.307Z,16.90
2022-12-15T15:01:58.650Z,16.85
2022-12-15T15:04:42.205Z,16.60
2022-12-15T15:07:17.464Z,16.83
2022-12-15T15:09:47.997Z,17.60
2022-12-15T15:12:19.633Z,16.85
2022-12-15T15:14:48.342Z,18.15
2022-12-15T15:17:17.172Z,18.27
2022-12-15T15:19:52.921Z,18.33
2022-12-15T15:22:37.992Z,17.48
2022-12-15T15:25:41.660Z,17.23
2022-12-15T15:28:09.659Z,16.60
2022-12-15T15:30:44.078Z,16.70
2022-12-15T15:33:13.034Z,18.35
2022-12-15T15:35:44.154Z,20.17
2022-12-15T15:38:14.262Z,19.00
2022-12-15T15:40:41.820Z,17.83
2022-12-15T15:43:12.332Z,17.73
2022-12-15T15:45:41.745Z,17.77
2022-12-15T15:48:13.708Z,17.83
2022-12-15T15:50:44.661Z,18.25
2022-12-15T15:53:17.845Z,18.67
2022-12-15T15:55:45.859Z,18.67
2022-12-15T15:58:16.112Z,18.80
2022-12-15T16:00:57.393Z,20.90
2022-12-15T16:03:25.200Z,18.83
2022-12-15T16:05:53.482Z,18.40
2022-12-15T16:08:27.354Z,18.35
2022-12-15T16:10:57.418Z,19.77
2022-12-15T16:13:26.734Z,19.52
2022-12-15T16:15:54.291Z,18.17
2022-12-15T16:18:23.943Z,17.75
2022-12-15T16:20:55.583Z,18.88
2022-12-15T16:23:30.056Z,19.10
2022-12-15T16:25:59.036Z,18.55
2022-12-15T16:28:28.395Z,17.67
2022-12-15T16:30:56.349Z,19.30
2022-12-15T16:33:34.520Z,17.95
2022-12-15T16:36:02.091Z,17.88
2022-12-15T16:38:34.212Z,18.25
2022-12-15T16:41:09.007Z,18.15
2022-12-15T16:43:44.505Z,17.52
2022-12-15T16:46:16.185Z,18.30
2022-12-15T16:48:44.087Z,17.88
2022-12-15T16:51:17.112Z,18.52
2022-12-15T16:53:46.715Z,18.50
2022-12-15T16:56:15.890Z,17.50
2022-12-15T16:58:48.967Z,17.92
2022-12-15T17:01:22.426Z,19.23
2022-12-15T17:03:50.049Z,18.17
2022-12-15T17:06:18.239Z,19.45
2022-12-15T17:08:50.248Z,19.02
2022-12-15T17:11:24.879Z,18.38
2022-12-15T17:13:53.636Z,18.77
2022-12-15T17:16:23.183Z,17.52
2022-12-15T17:18:51.457Z,17.45
2022-12-15T17:21:23.097Z,18.42
2022-12-15T17:23:58.222Z,18.20
2022-12-15T17:26:30.175Z,18.33
2022-12-15T17:29:02.211Z,17.42
2022-12-15T17:31:35.577Z,17.33
2022-12-15T17:34:16.300Z,17.58
2022-12-15T17:36:44.016Z,18.58
2022-12-15T17:39:14.838Z,18.17
2022-12-15T17:42:01.831Z,18.33
2022-12-15T17:44:36.345Z,18.50
2022-12-15T17:47:06.429Z,18.73
2022-12-15T17:49:38.635Z,20.05
2022-12-15T17:52:38.954Z,19.10
2022-12-15T17:55:19.112Z,18.05
2022-12-15T17:57:47.213Z,19.77
2022-12-15T18:00:28.265Z,19.13
2022-12-15T18:02:57.194Z,20.60
2022-12-15T18:05:28.418Z,19.02
2022-12-15T18:07:58.112Z,19.70
2022-12-15T18:10:29.908Z,19.58
2022-12-15T18:13:06.062Z,19.23
2022-12-15T18:15:35.981Z,19.10
2022-12-15T18:18:05.778Z,20.20
2022-12-15T18:20:33.173Z,18.65
2022-12-15T18:23:00.464Z,19.98
2022-12-15T18:25:31.450Z,19.40
2022-12-15T18:28:01.987Z,18.90
2022-12-15T18:30:37.853Z,21.33
2022-12-15T18:33:08.038Z,20.13
2022-12-15T18:35:37.533Z,20.45
2022-12-15T18:38:30.320Z,18.70
2022-12-15T18:41:01.409Z,20.08
2022-12-15T18:43:50.057Z,19.20
2022-12-15T18:46:50.268Z,19.15
2022-12-15T18:49:27.007Z,18.75
2022-12-15T18:52:16.294Z,19.70
2022-12-15T18:54:44.312Z,19.50
2022-12-15T18:57:27.318Z,20.58
2022-12-15T19:00:04.909Z,20.27
2022-12-15T19:02:32.426Z,20.40
2022-12-15T19:05:02.949Z,21.10
2022-12-15T19:07:30.653Z,21.08
2022-12-15T19:09:57.831Z,20.48
2022-12-15T19:12:31.483Z,22.63
2022-12-15T19:15:07.232Z,22.13
2022-12-15T19:17:58.635Z,20.80
2022-12-15T19:20:57.059Z,19.88
2022-12-15T19:23:27.138Z,20.50
2022-12-15T19:26:15.078Z,19.95
2022-12-15T19:28:51.890Z,20.55
2022-12-15T19:31:19.139Z,21.55
2022-12-15T19:33:46.780Z,20.58
2022-12-15T19:36:36.566Z,21.48
2022-12-15T19:39:07.736Z,21.83
2022-12-15T19:41:39.849Z,21.38
2022-12-15T19:44:14.847Z,21.30
2022-12-15T19:46:45.173Z,20.58
2022-12-15T19:49:15.078Z,23.00
2022-12-15T19:51:53.979Z,20.42
2022-12-15T19:54:22.917Z,21.58
2022-12-15T19:57:01.321Z,21.23
2022-12-15T19:59:29.093Z,20.08
2022-12-15T20:02:01.079Z,21.52
2022-12-15T20:04:28.728Z,21.55
2022-12-15T20:06:56.502Z,21.75
2022-12-15T20:09:24.521Z,20.85
2022-12-15T20:12:10.524Z,22.00
2022-12-15T20:14:52.114Z,21.48
2022-12-15T20:17:40.281Z,20.77
2022-12-15T20:20:19.410Z,19.95
2022-12-15T20:22:49.713Z,19.75
2022-12-15T20:28:12.365Z,20.95
2022-12-15T20:30:39.655Z,22.40
2022-12-15T20:33:08.317Z,21.23
2022-12-15T20:35:42.551Z,22.33
2022-12-15T20:38:18.072Z,21.80
2022-12-15T20:41:01.212Z,20.38
2022-12-15T20:44:11.938Z,22.77
2022-12-15T20:46:41.940Z,21.08
2022-12-15T20:49:18.559Z,21.23
2022-12-15T20:51:48.994Z,22.05
2022-12-15T20:54:21.083Z,21.77
2022-12-15T20:57:04.510Z,22.38
2022-12-15T20:59:37.822Z,21.95
2022-12-15T21:02:37.189Z,21.85
2022-12-15T21:05:24.376Z,21.40
2022-12-15T21:08:23.413Z,21.30
2022-12-15T21:11:01.986Z,21.75
2022-12-15T21:13:41.588Z,21.80
2022-12-15T21:16:14.515Z,19.45
2022-12-15T21:21:49.930Z,19.70
2022-12-15T21:24:24.565Z,20.27
2022-12-15T21:26:55.334Z,18.75
2022-12-15T21:29:29.954Z,19.80
2022-12-15T21:32:10.981Z,20.90
2022-12-15T21:34:38.912Z,19.23
2022-12-15T21:37:10.096Z,18.92
2022-12-15T21:39:37.821Z,20.80
2022-12-15T21:42:10.176Z,21.17
2022-12-15T21:44:37.291Z,19.55
2022-12-15T21:47:28.311Z,18.95
2022-12-15T21:50:07.579Z,18.90
2022-12-15T21:52:39.973Z,20.50
2022-12-15T21:55:15.157Z,21.05
2022-12-15T21:57:44.478Z,20.50
2022-12-15T22:00:12.555Z,19.98
2022-12-15T22:02:40.563Z,19.00
2022-12-15T22:05:24.594Z,20.60
2022-12-15T22:07:52.824Z,18.55
2022-12-15T22:10:20.080Z,19.35
2022-12-15T22:12:55.901Z,20.35
2022-12-15T22:15:27.023Z,18.92
2022-12-15T22:17:54.179Z,19.67
2022-12-15T22:20:22.930Z,19.70
2022-12-15T22:22:53.098Z,21.17
2022-12-15T22:25:26.836Z,20.33
2022-12-15T22:27:54.752Z,19.20
2022-12-15T22:30:26.351Z,20.30
2022-12-15T22:32:56.586Z,21.05
2022-12-15T22:35:27.530Z,20.77
2022-12-15T22:37:55.906Z,20.98
2022-12-15T22:40:23.773Z,20.63
2022-12-15T22:42:54.835Z,21.13
2022-12-15T22:45:24.029Z,21.58
2022-12-15T22:47:52.693Z,21.52
2022-12-15T22:50:21.647Z,19.95
2022-12-15T22:52:49.069Z,21.20
2022-12-15T22:55:18.452Z,21.00
2022-12-15T22:57:53.831Z,21.52
2022-12-15T23:00:21.939Z,20.63
2022-12-15T23:02:49.265Z,20.52
2022-12-15T23:05:21.025Z,21.67
2022-12-15T23:07:48.478Z,20.60
2022-12-15T23:10:38.329Z,20.25
2022-12-15T23:13:05.814Z,19.67
2022-12-15T23:15:53.351Z,21.58
2022-12-15T23:18:21.939Z,21.60
2022-12-15T23:20:49.544Z,19.77
2022-12-15T23:23:16.869Z,20.30
2022-12-15T23:25:45.376Z,21.75
2022-12-15T23:28:14.292Z,22.25
2022-12-15T23:30:41.466Z,21.45
2022-12-15T23:33:08.787Z,21.27
2022-12-15T23:35:35.855Z,22.13
2022-12-15T23:38:02.908Z,21.05
2022-12-15T23:40:30.027Z,20.90
2022-12-15T23:42:57.380Z,19.73
2022-12-15T23:45:24.801Z,20.38
2022-12-15T23:47:52.020Z,21.65
2022-12-15T23:50:21.593Z,19.85
2022-12-15T23:52:51.756Z,21.40
2022-12-15T23:55:19.335Z,20.58
2022-12-15T23:57:46.913Z,20.48
